Time;durP1;ratioP1;P1;durP2;ratioP2;P2;SDS_P1;SDS_P2;PMS_P1;PMS_P2;Temp;Humidity;BMP_temperature;BMP_pressure;BME280_temperature;BME280_humidity;BME280_pressure;Samples;Min_cycle;Max_cycle;Signal;HPM_P1;HPM_P2
2024/04/06 00:01:46;;;;;;;;;;;;;;;12.31;100.00;97837.50;5056007;28;19921;-82
2024/04/06 00:04:11;;;;;;;;;;;;;;;12.35;100.00;97831.59;5072353;28;19922;-81
2024/04/06 00:06:37;;;;;;;;;;;;;;;12.35;100.00;97832.41;5072364;28;19921;-81
2024/04/06 00:09:03;;;;;;;;;;;;;;;12.37;100.00;97830.28;5056018;28;19916;-81
2024/04/06 00:11:28;;;;;;;;;;;;;;;12.41;100.00;97836.78;5055518;28;19923;-81
2024/04/06 00:13:54;;;;;;;;;;;;;;;12.43;100.00;97826.53;5055887;28;19916;-81
2024/04/06 00:16:19;;;;;;;;;;;;;;;12.43;100.00;97813.06;5071759;28;19921;-82
2024/04/06 00:18:45;;;;;;;;;;;;;;;12.46;100.00;97804.47;5055924;28;19970;-82
2024/04/06 00:21:10;;;;;;;;;;;;;;;12.50;100.00;97829.00;5072630;28;19912;-82
2024/04/06 00:23:36;;;;;;;;;;;;;;;12.49;100.00;97813.91;5071890;28;20421;-85
2024/04/06 00:26:01;;;;;;;;;;;;;;;12.51;100.00;97828.72;5055466;28;20286;-80
2024/04/06 00:28:27;;;;;;;;;;;;;;;12.47;100.00;97829.53;5054852;28;19919;-82
2024/04/06 00:30:54;;;;;;;;;;;;;;;12.44;100.00;97820.09;5055704;28;19971;-81
2024/04/06 00:33:20;;;;;;;;;;;;;;;12.40;100.00;97818.97;5072121;28;19920;-80
2024/04/06 00:35:45;;;;;;;;;;;;;;;12.36;100.00;97817.03;5071277;28;20283;-81
2024/04/06 00:38:10;;;;;;;;;;;;;;;12.34;100.00;97811.13;5054347;28;19999;-81
2024/04/06 00:40:36;;;;;;;;;;;;;;;12.31;100.00;97813.25;5055342;28;19919;-81
2024/04/06 00:43:02;;;;;;;;;;;;;;;12.33;100.00;97802.22;5072240;28;19924;-83
2024/04/06 00:45:27;;;;;;;;;;;;;;;12.29;100.00;97793.84;5071742;28;19912;-81
2024/04/06 00:47:53;;;;;;;;;;;;;;;12.24;100.00;97787.63;5054922;28;19968;-81
2024/04/06 00:50:19;;;;;;;;;;;;;;;12.17;100.00;97776.25;5054947;28;19974;-84
2024/04/06 00:52:44;;;;;;;;;;;;;;;12.15;100.00;97784.59;5055474;28;19951;-82
2024/04/06 00:55:10;;;;;;;;;;;;;;;12.17;100.00;97766.31;5075459;28;19935;-81
2024/04/06 00:57:35;;;;;;;;;;;;;;;12.16;100.00;97769.25;5059195;28;19913;-81
2024/04/06 01:00:01;;;;;;;;;;;;;;;12.15;100.00;97757.66;5058622;28;19916;-82
2024/04/06 01:02:26;;;;;;;;;;;;;;;12.20;100.00;97755.00;5075390;28;19916;-83
2024/04/06 01:04:52;;;;;;;;;;;;;;;12.26;100.00;97753.16;5091903;28;19923;-81
2024/04/06 01:07:17;;;;;;;;;;;;;;;12.27;100.00;97747.50;5058056;28;20248;-81
2024/04/06 01:09:43;;;;;;;;;;;;;;;12.28;100.00;97724.88;5092138;28;20023;-81
2024/04/06 01:12:08;;;;;;;;;;;;;;;12.25;100.00;97732.66;5058848;28;19923;-81
2024/04/06 01:14:34;;;;;;;;;;;;;;;12.25;100.00;97728.09;5075468;28;19920;-81
2024/04/06 01:16:59;;;;;;;;;;;;;;;12.25;100.00;97741.56;5075450;28;19916;-81
2024/04/06 01:19:25;;;;;;;;;;;;;;;12.28;100.00;97743.75;5055107;28;20279;-82
2024/04/06 01:21:50;;;;;;;;;;;;;;;12.34;100.00;97744.56;5073186;28;20007;-82
2024/04/06 01:24:42;;;;;;;;;;;;;;;12.36;100.00;97744.31;5058437;28;19923;-81
2024/04/06 01:27:08;;;;;;;;;;;;;;;12.35;100.00;97718.44;5073966;28;19916;-82
2024/04/06 01:29:33;;;;;;;;;;;;;;;12.35;100.00;97721.13;5074485;28;19923;-81
2024/04/06 01:31:59;;;;;;;;;;;;;;;12.34;100.00;97724.91;5074535;28;20023;-85
2024/04/06 01:34:33;;;;;;;;;;;;;;;12.35;100.00;97710.34;5055729;28;19921;-82
2024/04/06 01:37:01;;;;;;;;;;;;;;;12.34;100.00;97706.84;5064195;28;19954;-83
2024/04/06 01:39:27;;;;;;;;;;;;;;;12.38;100.00;97707.94;5074147;28;20371;-82
2024/04/06 01:41:52;;;;;;;;;;;;;;;12.38;100.00;97701.75;5074774;28;19922;-82
2024/04/06 01:44:18;;;;;;;;;;;;;;;12.41;100.00;97710.13;5075451;28;19923;-84
2024/04/06 01:46:43;;;;;;;;;;;;;;;12.44;100.00;97706.91;5074625;28;19923;-82
2024/04/06 01:49:26;;;;;;;;;;;;;;;12.46;100.00;97718.25;5057263;28;20087;-82
2024/04/06 01:51:52;;;;;;;;;;;;;;;12.45;100.00;97696.94;5084041;28;19916;-81
2024/04/06 01:54:17;;;;;;;;;;;;;;;12.43;100.00;97691.78;5088322;28;19968;-82
2024/04/06 01:56:44;;;;;;;;;;;;;;;12.42;100.00;97678.59;5077589;28;19916;-82
2024/04/06 01:59:10;;;;;;;;;;;;;;;12.41;100.00;97685.88;5058890;28;19920;-82
2024/04/06 02:01:35;;;;;;;;;;;;;;;12.38;100.00;97694.47;5059000;28;19975;-82
2024/04/06 02:04:01;;;;;;;;;;;;;;;12.34;100.00;97684.50;5058707;28;19919;-86
2024/04/06 02:06:26;;;;;;;;;;;;;;;12.32;100.00;97722.47;5075042;28;19917;-83
2024/04/06 02:08:52;;;;;;;;;;;;;;;12.28;100.00;97699.84;5092063;28;20263;-82
2024/04/06 02:11:17;;;;;;;;;;;;;;;12.23;100.00;97672.88;5074422;28;19916;-83
2024/04/06 02:13:43;;;;;;;;;;;;;;;12.22;100.00;97672.03;5075187;28;20351;-83
2024/04/06 02:16:08;;;;;;;;;;;;;;;12.24;100.00;97685.25;5090742;28;20012;-84
2024/04/06 02:18:34;;;;;;;;;;;;;;;12.22;100.00;97672.03;5074580;28;19965;-82
2024/04/06 02:20:59;;;;;;;;;;;;;;;12.23;100.00;97673.66;5057759;28;19952;-82
2024/04/06 02:23:24;;;;;;;;;;;;;;;12.24;100.00;97677.97;5072803;28;19966;-84
2024/04/06 02:25:51;;;;;;;;;;;;;;;12.22;100.00;97668.53;5090413;28;20286;-82
2024/04/06 02:28:17;;;;;;;;;;;;;;;12.19;100.00;97660.97;5054023;28;19919;-83
2024/04/06 02:30:42;;;;;;;;;;;;;;;12.19;100.00;97663.66;5073767;28;20023;-83
2024/04/06 02:33:08;;;;;;;;;;;;;;;12.22;100.00;97637.00;5074422;28;19909;-83
2024/04/06 02:35:33;;;;;;;;;;;;;;;12.21;100.00;97645.38;5073383;28;19942;-83
2024/04/06 02:37:59;;;;;;;;;;;;;;;12.17;100.00;97637.03;5072876;28;19917;-86
2024/04/06 02:40:24;;;;;;;;;;;;;;;12.15;100.00;97630.28;5057000;28;20347;-83
2024/04/06 02:42:50;;;;;;;;;;;;;;;12.11;100.00;97648.81;5057294;28;19954;-83
2024/04/06 02:45:17;;;;;;;;;;;;;;;12.13;100.00;97635.91;5057071;28;19916;-87
2024/04/06 02:47:42;;;;;;;;;;;;;;;12.13;100.00;97627.81;5073186;28;19916;-85
2024/04/06 02:50:10;;;;;;;;;;;;;;;12.16;100.00;97621.09;5074396;28;19915;-83
2024/04/06 02:52:35;;;;;;;;;;;;;;;12.16;100.00;97630.00;5074089;28;19916;-84
2024/04/06 02:55:01;;;;;;;;;;;;;;;12.16;100.00;97619.22;5056778;28;20373;-83
2024/04/06 02:57:26;;;;;;;;;;;;;;;12.16;100.00;97618.41;5089827;28;19916;-83
2024/04/06 02:59:52;;;;;;;;;;;;;;;12.16;100.00;97624.59;5056814;28;19912;-83
2024/04/06 03:02:19;;;;;;;;;;;;;;;12.14;100.00;97599.81;5072690;28;19951;-83
2024/04/06 03:04:45;;;;;;;;;;;;;;;12.13;100.00;97603.59;5056872;28;19958;-83
2024/04/06 03:07:11;;;;;;;;;;;;;;;12.10;100.00;97591.47;5073706;28;19955;-84
2024/04/06 03:09:36;;;;;;;;;;;;;;;12.06;100.00;97592.25;5073603;28;19912;-83
2024/04/06 03:12:02;;;;;;;;;;;;;;;12.04;100.00;97581.75;5072457;28;19912;-87
2024/04/06 03:14:28;;;;;;;;;;;;;;;12.03;100.00;97577.41;5072925;28;19975;-87
2024/04/06 03:16:54;;;;;;;;;;;;;;;12.01;100.00;97571.50;5055236;28;19924;-83
2024/04/06 03:19:19;;;;;;;;;;;;;;;12.01;100.00;97563.44;5072867;28;19923;-84
2024/04/06 03:21:45;;;;;;;;;;;;;;;12.01;100.00;97552.66;5072435;28;19916;-84
2024/04/06 03:24:11;;;;;;;;;;;;;;;11.98;100.00;97539.69;5073099;28;19916;-84
2024/04/06 03:26:36;;;;;;;;;;;;;;;11.98;100.00;97538.91;5089202;28;19919;-85
2024/04/06 03:29:02;;;;;;;;;;;;;;;11.95;100.00;97525.97;5072616;28;20006;-83
2024/04/06 03:31:29;;;;;;;;;;;;;;;11.91;100.00;97508.69;5089541;28;19912;-84
2024/04/06 03:33:54;;;;;;;;;;;;;;;11.84;100.00;97496.28;5056360;28;19923;-84
2024/04/06 03:36:20;;;;;;;;;;;;;;;11.85;100.00;97478.22;5072586;28;19920;-82
2024/04/06 03:38:45;;;;;;;;;;;;;;;11.87;100.00;97478.81;5072034;28;19923;-87
2024/04/06 03:41:11;;;;;;;;;;;;;;;11.89;100.00;97468.59;5056266;28;20378;-84
2024/04/06 03:43:36;;;;;;;;;;;;;;;11.83;100.00;97470.44;5072792;28;19923;-84
2024/04/06 03:46:04;;;;;;;;;;;;;;;11.77;100.00;97452.63;5072536;28;19923;-84
2024/04/06 03:48:30;;;;;;;;;;;;;;;11.75;100.00;97448.59;5056017;28;20011;-84
2024/04/06 03:50:56;;;;;;;;;;;;;;;11.76;100.00;97442.16;5072281;28;19917;-82
2024/04/06 03:53:40;;;;;;;;;;;;;;;11.75;100.00;97422.50;5071707;28;19916;-83
2024/04/06 03:56:20;;;;;;;;;;;;;;;11.75;100.00;97417.13;5070495;28;19921;-83
2024/04/06 03:58:46;;;;;;;;;;;;;;;11.70;100.00;97395.56;5072553;28;19955;-83
2024/04/06 04:01:11;;;;;;;;;;;;;;;11.71;100.00;97385.63;5072437;28;19916;-85
2024/04/06 04:03:38;;;;;;;;;;;;;;;11.69;100.00;97401.22;5088966;28;19916;-85
2024/04/06 04:06:04;;;;;;;;;;;;;;;11.73;100.00;97397.72;5073716;28;20381;-83
2024/04/06 04:08:30;;;;;;;;;;;;;;;11.69;100.00;97388.56;5054035;28;20002;-83
2024/04/06 04:10:56;;;;;;;;;;;;;;;11.67;100.00;97390.72;5056424;28;19982;-84
2024/04/06 04:13:23;;;;;;;;;;;;;;;11.65;100.00;97392.88;5061883;28;19913;-86
2024/04/06 04:15:48;;;;;;;;;;;;;;;11.65;100.00;97388.28;5076607;28;19987;-81
2024/04/06 04:18:14;;;;;;;;;;;;;;;11.59;100.00;97378.59;5067112;28;20283;-87
2024/04/06 04:20:40;;;;;;;;;;;;;;;11.57;100.00;97364.59;5056243;28;19920;-83
2024/04/06 04:23:05;;;;;;;;;;;;;;;11.56;100.00;97349.50;5088750;28;19987;-84
2024/04/06 04:25:34;;;;;;;;;;;;;;;11.62;100.00;97353.84;5055360;28;19916;-85
2024/04/06 04:27:59;;;;;;;;;;;;;;;11.59;100.00;97367.00;5057300;28;19912;-83
2024/04/06 04:30:25;;;;;;;;;;;;;;;11.63;100.00;97354.66;5075260;28;20382;-84
2024/04/06 04:32:51;;;;;;;;;;;;;;;11.64;100.00;97375.91;5075954;28;19930;-84
2024/04/06 04:35:17;;;;;;;;;;;;;;;11.59;100.00;97378.59;5092482;28;19924;-86
2024/04/06 04:37:42;;;;;;;;;;;;;;;11.60;100.00;97364.06;5059369;28;19924;-84
2024/04/06 04:40:08;;;;;;;;;;;;;;;11.58;100.00;97315.06;5075341;28;20425;-84
2024/04/06 04:42:34;;;;;;;;;;;;;;;11.59;100.00;97356.25;5059566;28;19919;-84
2024/04/06 04:45:01;;;;;;;;;;;;;;;11.69;100.00;97350.88;5055062;28;20054;-84
2024/04/06 04:47:27;;;;;;;;;;;;;;;11.79;100.00;97345.53;5074024;28;19921;-88
2024/04/06 04:49:52;;;;;;;;;;;;;;;11.84;100.00;97337.44;5059198;28;20359;-84
2024/04/06 04:52:17;;;;;;;;;;;;;;;11.87;100.00;97331.56;5092128;28;19970;-84
2024/04/06 04:54:43;;;;;;;;;;;;;;;11.93;100.00;97359.28;5042299;28;20378;-84
2024/04/06 04:57:09;;;;;;;;;;;;;;;11.93;100.00;97318.09;5059064;28;19916;-86
2024/04/06 04:59:35;;;;;;;;;;;;;;;11.85;100.00;97303.25;5075623;28;20003;-86
2024/04/06 05:02:00;;;;;;;;;;;;;;;11.80;100.00;97273.66;5075452;28;20345;-86
2024/04/06 05:04:26;;;;;;;;;;;;;;;11.73;100.00;97276.63;5075476;28;19917;-83
2024/04/06 05:06:51;;;;;;;;;;;;;;;11.72;100.00;97258.03;5075201;28;19958;-85
2024/04/06 05:09:17;;;;;;;;;;;;;;;11.68;100.00;97256.97;5058809;28;19916;-84
2024/04/06 05:11:43;;;;;;;;;;;;;;;11.69;100.00;97242.44;5074878;28;20297;-87
2024/04/06 05:14:08;;;;;;;;;;;;;;;11.74;100.00;97235.16;5075045;28;19916;-84
2024/04/06 05:16:34;;;;;;;;;;;;;;;11.72;100.00;97214.97;5075416;28;19912;-84
2024/04/06 05:19:05;;;;;;;;;;;;;;;11.80;100.00;97206.34;5074820;28;20148;-84
2024/04/06 05:21:31;;;;;;;;;;;;;;;11.85;100.00;97212.56;5058209;28;20015;-84
2024/04/06 05:23:57;;;;;;;;;;;;;;;11.87;100.00;97196.97;5074980;28;20010;-85
2024/04/06 05:26:23;;;;;;;;;;;;;;;11.91;100.00;97207.19;5075528;28;19955;-84
2024/04/06 05:28:48;;;;;;;;;;;;;;;11.88;100.00;97190.53;5074277;28;19954;-86
2024/04/06 05:31:14;;;;;;;;;;;;;;;11.84;100.00;97194.78;5058443;28;19962;-84
2024/04/06 05:33:39;;;;;;;;;;;;;;;11.84;100.00;97167.88;5074914;28;20411;-85
2024/04/06 05:36:06;;;;;;;;;;;;;;;11.90;100.00;97179.47;5091038;28;19916;-85
2024/04/06 05:38:32;;;;;;;;;;;;;;;11.95;100.00;97154.44;5074523;28;19916;-85
2024/04/06 05:40:58;;;;;;;;;;;;;;;11.96;100.00;97167.63;5057757;28;19923;-85
2024/04/06 05:43:23;;;;;;;;;;;;;;;11.91;100.00;97148.78;5090853;28;19923;-85
2024/04/06 05:45:57;;;;;;;;;;;;;;;11.77;100.00;97151.19;5091460;28;19965;-83
2024/04/06 05:48:23;;;;;;;;;;;;;;;11.64;100.00;97133.75;5074017;28;20418;-84
2024/04/06 05:50:48;;;;;;;;;;;;;;;11.57;100.00;97137.78;5073546;28;20023;-84
2024/04/06 05:53:14;;;;;;;;;;;;;;;11.44;100.00;97139.94;5057911;28;20259;-84
2024/04/06 05:55:39;;;;;;;;;;;;;;;11.35;100.00;97143.41;5074817;28;20011;-84
2024/04/06 05:58:05;;;;;;;;;;;;;;;11.33;100.00;97150.97;5090903;28;20394;-84
2024/04/06 06:00:31;;;;;;;;;;;;;;;11.28;100.00;97129.47;5074483;28;19916;-84
2024/04/06 06:02:56;;;;;;;;;;;;;;;11.23;100.00;97111.44;5065677;28;19979;-84
2024/04/06 06:05:22;;;;;;;;;;;;;;;11.25;100.00;97128.09;5057600;28;20024;-89
2024/04/06 06:07:48;;;;;;;;;;;;;;;11.27;100.00;97112.50;5056928;28;20406;-84
2024/04/06 06:10:13;;;;;;;;;;;;;;;11.29;100.00;97113.03;5090495;28;19918;-84
2024/04/06 06:12:39;;;;;;;;;;;;;;;11.31;100.00;97081.31;5074213;28;19959;-87
2024/04/06 06:15:05;;;;;;;;;;;;;;;11.41;100.00;97084.00;5090460;28;20385;-85
2024/04/06 06:17:30;;;;;;;;;;;;;;;11.48;100.00;97053.31;5073406;28;19926;-84
2024/04/06 06:19:56;;;;;;;;;;;;;;;11.51;100.00;97068.91;5073922;28;19966;-84
2024/04/06 06:22:22;;;;;;;;;;;;;;;11.53;100.00;97070.22;5073620;28;19916;-85
2024/04/06 06:24:47;;;;;;;;;;;;;;;11.57;100.00;97057.06;5057274;28;19912;-87
2024/04/06 06:27:13;;;;;;;;;;;;;;;11.41;100.00;97059.78;5057094;28;19922;-83
2024/04/06 06:29:38;;;;;;;;;;;;;;;11.29;100.00;97051.19;5057589;28;19912;-84
2024/04/06 06:32:04;;;;;;;;;;;;;;;11.26;100.00;97045.53;5090896;28;19924;-84
2024/04/06 06:34:30;;;;;;;;;;;;;;;11.18;100.00;97052.28;5072128;28;19959;-84
2024/04/06 06:36:58;;;;;;;;;;;;;;;11.15;100.00;97040.19;5064914;28;20019;-84
2024/04/06 06:39:23;;;;;;;;;;;;;;;11.08;100.00;97039.63;5057954;28;20020;-86
2024/04/06 06:41:51;;;;;;;;;;;;;;;11.03;100.00;97028.09;5073383;28;20375;-84
2024/04/06 06:44:16;;;;;;;;;;;;;;;10.88;100.00;97016.28;5089973;28;19985;-84
2024/04/06 06:46:42;;;;;;;;;;;;;;;10.65;100.00;97025.66;5090114;28;19920;-84
2024/04/06 06:49:07;;;;;;;;;;;;;;;10.50;100.00;97010.31;5073416;28;20379;-85
2024/04/06 06:51:33;;;;;;;;;;;;;;;10.53;100.00;97001.75;5072096;28;19939;-86
2024/04/06 06:53:59;;;;;;;;;;;;;;;10.74;100.00;96961.44;5073285;28;19916;-85
2024/04/06 06:56:25;;;;;;;;;;;;;;;11.05;100.00;96983.72;5056063;28;19946;-84
2024/04/06 06:58:50;;;;;;;;;;;;;;;11.40;100.00;96982.84;5055830;28;20298;-84
2024/04/06 07:01:16;;;;;;;;;;;;;;;11.70;100.00;96961.50;5072608;28;19920;-87
2024/04/06 07:03:42;;;;;;;;;;;;;;;12.10;100.00;96955.13;5089439;28;19916;-84
2024/04/06 07:06:10;;;;;;;;;;;;;;;12.06;100.00;96946.78;5056716;28;19966;-83
2024/04/06 07:08:36;;;;;;;;;;;;;;;12.00;100.00;96942.53;5072388;28;19966;-84
2024/04/06 07:11:04;;;;;;;;;;;;;;;12.05;100.00;96963.22;5056163;28;19916;-84
2024/04/06 07:13:32;;;;;;;;;;;;;;;12.02;100.00;96977.25;5056766;28;20399;-85
2024/04/06 07:16:04;;;;;;;;;;;;;;;11.87;100.00;96961.97;5072686;28;20276;-84
2024/04/06 07:18:30;;;;;;;;;;;;;;;11.86;100.00;96926.19;5073606;28;19942;-84
2024/04/06 07:20:57;;;;;;;;;;;;;;;11.97;100.00;96944.97;5072288;28;19927;-84
2024/04/06 07:23:22;;;;;;;;;;;;;;;12.00;100.00;96939.81;5072712;28;19917;-83
2024/04/06 07:25:48;;;;;;;;;;;;;;;12.10;100.00;96925.50;5089117;28;19951;-83
2024/04/06 07:28:13;;;;;;;;;;;;;;;12.02;100.00;96940.34;5055428;28;19923;-84
2024/04/06 07:30:39;;;;;;;;;;;;;;;12.28;100.00;96932.91;5052790;28;19943;-83
2024/04/06 07:33:04;;;;;;;;;;;;;;;12.55;100.00;96910.09;5087238;28;19954;-83
2024/04/06 07:35:30;;;;;;;;;;;;;;;13.12;100.00;96900.34;5056258;28;19920;-83
2024/04/06 07:37:55;;;;;;;;;;;;;;;13.13;100.00;96901.97;5073290;28;19916;-84
2024/04/06 07:40:21;;;;;;;;;;;;;;;13.25;100.00;96911.53;5055531;28;19969;-87
2024/04/06 07:42:46;;;;;;;;;;;;;;;13.31;100.00;96905.84;5071870;28;20263;-88
2024/04/06 07:45:12;;;;;;;;;;;;;;;13.25;100.00;96906.16;5072349;28;20003;-84
2024/04/06 07:47:37;;;;;;;;;;;;;;;13.35;100.00;96923.06;5071846;28;19960;-84
2024/04/06 07:50:03;;;;;;;;;;;;;;;13.30;100.00;96914.22;5055869;28;20006;-84
2024/04/06 07:52:29;;;;;;;;;;;;;;;13.37;100.00;96920.06;5055263;28;19916;-84
2024/04/06 07:54:55;;;;;;;;;;;;;;;13.22;100.00;96912.91;5072633;28;19919;-84
2024/04/06 07:57:21;;;;;;;;;;;;;;;12.99;100.00;96895.63;5072477;28;19920;-85
2024/04/06 07:59:46;;;;;;;;;;;;;;;13.90;100.00;96933.44;5071614;28;19919;-83
2024/04/06 08:02:12;;;;;;;;;;;;;;;14.63;100.00;96912.38;5056690;28;20003;-83
2024/04/06 08:04:38;;;;;;;;;;;;;;;14.58;100.00;96931.38;5076434;28;19912;-86
2024/04/06 08:07:05;;;;;;;;;;;;;;;14.67;100.00;96941.22;5077284;28;20417;-85
2024/04/06 08:09:31;;;;;;;;;;;;;;;15.17;100.00;96932.53;5060168;28;20358;-84
2024/04/06 08:11:59;;;;;;;;;;;;;;;14.79;100.00;96948.91;5076230;28;19916;-84
2024/04/06 08:14:25;;;;;;;;;;;;;;;14.30;100.00;96939.34;5060055;28;19918;-84
2024/04/06 08:16:52;;;;;;;;;;;;;;;14.28;100.00;96949.66;5055985;28;19936;-85
2024/04/06 08:19:17;;;;;;;;;;;;;;;14.48;100.00;96943.94;5072283;28;20280;-86
2024/04/06 08:21:42;;;;;;;;;;;;;;;15.45;92.76;96954.19;5059201;28;19917;-83
2024/04/06 08:24:08;;;;;;;;;;;;;;;14.78;99.93;96941.06;5076759;28;19919;-85
2024/04/06 08:26:33;;;;;;;;;;;;;;;14.16;100.00;96950.09;5078536;28;19968;-85
2024/04/06 08:29:00;;;;;;;;;;;;;;;13.59;100.00;96981.63;5060249;28;20271;-86
2024/04/06 08:31:25;;;;;;;;;;;;;;;13.39;100.00;96959.16;5059510;28;19923;-84
2024/04/06 08:33:51;;;;;;;;;;;;;;;14.14;100.00;96956.88;5059083;28;20011;-83
2024/04/06 08:36:16;;;;;;;;;;;;;;;15.01;100.00;96978.00;5076306;28;20110;-84
2024/04/06 08:38:41;;;;;;;;;;;;;;;15.29;100.00;96961.78;5080774;28;19942;-86
2024/04/06 08:41:08;;;;;;;;;;;;;;;15.27;99.16;96947.75;5070309;28;19916;-84
2024/04/06 08:43:35;;;;;;;;;;;;;;;15.22;95.40;96937.84;5096749;28;19904;-85
2024/04/06 08:46:00;;;;;;;;;;;;;;;14.38;100.00;96960.31;5087571;28;20112;-84
2024/04/06 08:48:27;;;;;;;;;;;;;;;13.83;100.00;96936.47;5075425;28;20351;-85
2024/04/06 08:50:54;;;;;;;;;;;;;;;13.52;100.00;96960.38;5074527;28;19924;-84
2024/04/06 08:53:19;;;;;;;;;;;;;;;13.46;100.00;96958.81;5076106;28;19973;-84
2024/04/06 08:55:45;;;;;;;;;;;;;;;13.51;100.00;96963.34;5093038;28;19919;-82
2024/04/06 08:58:10;;;;;;;;;;;;;;;14.11;100.00;96960.19;5099572;28;19951;-83
2024/04/06 09:00:36;;;;;;;;;;;;;;;13.62;100.00;96962.13;5112978;28;20374;-84
2024/04/06 09:03:01;;;;;;;;;;;;;;;13.11;100.00;96987.75;5076191;28;19919;-84
2024/04/06 09:05:27;;;;;;;;;;;;;;;13.28;100.00;96986.53;5075693;28;19919;-84
2024/04/06 09:07:52;;;;;;;;;;;;;;;13.58;100.00;96961.91;5075923;28;19981;-84
2024/04/06 09:10:18;;;;;;;;;;;;;;;13.52;100.00;96986.53;5075617;28;19958;-84
2024/04/06 09:12:43;;;;;;;;;;;;;;;13.78;100.00;96985.16;5092423;28;20015;-84
2024/04/06 09:15:15;;;;;;;;;;;;;;;14.22;100.00;96988.66;5058076;28;19923;-86
2024/04/06 09:17:41;;;;;;;;;;;;;;;14.07;100.00;96989.66;5075777;28;19913;-84
2024/04/06 09:20:08;;;;;;;;;;;;;;;13.84;100.00;96967.81;5075519;28;20271;-85
2024/04/06 09:22:33;;;;;;;;;;;;;;;13.46;100.00;96999.28;5074936;28;19942;-83
2024/04/06 09:24:58;;;;;;;;;;;;;;;13.11;100.00;96982.34;5075373;28;19912;-84
2024/04/06 09:27:24;;;;;;;;;;;;;;;12.86;100.00;96972.63;5075444;28;19966;-85
2024/04/06 09:29:49;;;;;;;;;;;;;;;12.56;100.00;96992.53;5058195;28;19913;-85
2024/04/06 09:32:18;;;;;;;;;;;;;;;12.21;100.00;96997.06;5075300;28;19989;-85
2024/04/06 09:34:47;;;;;;;;;;;;;;;11.86;100.00;96998.84;5059133;28;19917;-84
2024/04/06 09:37:12;;;;;;;;;;;;;;;11.41;100.00;96997.91;5058180;28;20006;-85
2024/04/06 09:39:38;;;;;;;;;;;;;;;11.18;100.00;96990.44;5059114;28;19944;-86
2024/04/06 09:42:04;;;;;;;;;;;;;;;11.50;100.00;97014.28;5075073;28;19916;-86
2024/04/06 09:44:31;;;;;;;;;;;;;;;12.43;100.00;97014.69;5058489;28;19919;-87
2024/04/06 09:46:56;;;;;;;;;;;;;;;12.16;100.00;97005.16;5074695;28;20286;-87
2024/04/06 09:49:23;;;;;;;;;;;;;;;12.04;100.00;97028.91;5058335;28;19942;-87
2024/04/06 09:51:48;;;;;;;;;;;;;;;12.60;100.00;97020.53;5074893;28;20367;-86
2024/04/06 09:54:14;;;;;;;;;;;;;;;12.94;100.00;97015.16;5058953;28;19919;-86
2024/04/06 09:56:39;;;;;;;;;;;;;;;13.05;100.00;96988.91;5075457;28;19920;-87
2024/04/06 09:59:05;;;;;;;;;;;;;;;13.02;100.00;97015.59;5059048;28;19912;-86
2024/04/06 10:01:30;;;;;;;;;;;;;;;13.07;100.00;96991.28;5059422;28;20359;-86
2024/04/06 10:03:56;;;;;;;;;;;;;;;13.51;100.00;97017.34;5074770;28;19912;-85
2024/04/06 10:06:30;;;;;;;;;;;;;;;14.05;100.00;97030.47;5091688;28;19962;-86
2024/04/06 10:08:56;;;;;;;;;;;;;;;14.39;100.00;97053.00;5058351;28;19912;-85
2024/04/06 10:11:22;;;;;;;;;;;;;;;14.18;100.00;97044.34;5074177;28;20386;-85
2024/04/06 10:13:51;;;;;;;;;;;;;;;14.33;100.00;97064.97;5057848;28;19912;-85
2024/04/06 10:16:17;;;;;;;;;;;;;;;14.77;100.00;97063.88;5074183;28;19913;-86
2024/04/06 10:18:42;;;;;;;;;;;;;;;15.58;100.00;97067.91;5074237;28;19935;-86
2024/04/06 10:21:12;;;;;;;;;;;;;;;16.17;96.06;97073.59;5074067;28;19920;-86
2024/04/06 10:23:39;;;;;;;;;;;;;;;17.22;87.32;97088.13;5091132;28;20001;-86
2024/04/06 10:26:04;;;;;;;;;;;;;;;18.59;70.63;97099.16;5056552;28;19913;-86
2024/04/06 10:28:30;;;;;;;;;;;;;;;18.68;69.99;97076.28;5072571;28;19920;-84
2024/04/06 10:30:55;;;;;;;;;;;;;;;18.76;68.98;97099.22;5056245;28;19950;-83
2024/04/06 10:33:21;;;;;;;;;;;;;;;19.65;63.31;97086.00;5056665;28;19920;-84
2024/04/06 10:35:47;;;;;;;;;;;;;;;18.77;65.62;97095.38;5056673;28;20378;-83
2024/04/06 10:38:12;;;;;;;;;;;;;;;16.95;73.47;97097.97;5090609;28;19955;-84
2024/04/06 10:40:38;;;;;;;;;;;;;;;15.74;84.71;97076.59;5073191;28;19921;-85
2024/04/06 10:43:03;;;;;;;;;;;;;;;15.12;91.15;97092.25;5074081;28;19916;-81
2024/04/06 10:45:29;;;;;;;;;;;;;;;14.48;96.96;97111.53;5087759;28;19907;-81
2024/04/06 10:47:54;;;;;;;;;;;;;;;14.32;100.00;97125.53;5075985;28;20001;-81
2024/04/06 10:50:20;;;;;;;;;;;;;;;14.42;100.00;97147.00;5074406;28;20335;-82
2024/04/06 10:52:47;;;;;;;;;;;;;;;14.56;100.00;97147.94;5073334;28;19970;-82
2024/04/06 10:55:20;;;;;;;;;;;;;;;14.72;100.00;97152.06;5089146;28;19920;-86
2024/04/06 10:57:46;;;;;;;;;;;;;;;15.05;97.95;97152.13;5074139;28;19912;-83
2024/04/06 11:00:12;;;;;;;;;;;;;;;15.37;96.12;97159.53;5090948;28;19919;-83
2024/04/06 11:02:38;;;;;;;;;;;;;;;15.35;95.99;97160.91;5077423;28;19916;-82
2024/04/06 11:05:05;;;;;;;;;;;;;;;15.81;88.87;97163.69;5074517;28;19916;-83
2024/04/06 11:07:30;;;;;;;;;;;;;;;16.09;84.34;97171.88;5074436;28;20244;-82
2024/04/06 11:09:56;;;;;;;;;;;;;;;16.59;79.88;97172.00;5056979;28;19938;-83
2024/04/06 11:12:26;;;;;;;;;;;;;;;16.11;78.88;97161.50;5056607;28;19999;-83
2024/04/06 11:14:51;;;;;;;;;;;;;;;15.71;80.51;97184.72;5073134;28;19922;-82
2024/04/06 11:17:18;;;;;;;;;;;;;;;15.56;80.59;97194.69;5072857;28;19912;-83
2024/04/06 11:19:43;;;;;;;13.65;8.70;;;;;;;15.10;82.68;97198.06;5038427;28;20389;-83
2024/04/06 11:22:09;;;;;;;14.95;3.85;;;;;;;14.81;94.28;97210.91;5055849;28;20355;-83
2024/04/06 11:24:34;;;;;;;12.55;3.10;;;;;;;14.77;94.55;97215.31;5056305;28;20036;-82
2024/04/06 11:27:07;;;;;;;11.32;3.58;;;;;;;15.43;89.98;97221.69;5072619;28;20028;-83
2024/04/06 11:29:33;;;;;;;9.00;2.42;;;;;;;15.97;80.81;97231.94;5055516;28;20129;-83
2024/04/06 11:31:58;;;;;;;8.13;2.50;;;;;;;16.24;77.45;97227.69;5055102;28;20134;-83
2024/04/06 11:34:24;;;;;;;12.20;2.85;;;;;;;16.32;75.00;97226.19;5072410;28;20463;-83
2024/04/06 11:36:50;;;;;;;12.60;2.50;;;;;;;16.85;70.75;97228.44;5055533;28;20032;-84
2024/04/06 11:39:15;;;;;;;11.95;3.67;;;;;;;17.66;64.23;97231.28;5071835;28;20430;-82
2024/04/06 11:41:41;;;;;;;8.23;2.47;;;;;;;17.66;63.48;97252.19;5072080;28;20117;-83
2024/04/06 11:44:07;;;;;;;7.22;2.58;;;;;;;18.08;62.02;97269.16;5072430;28;20056;-83
2024/04/06 11:46:34;;;;;;;9.25;2.45;;;;;;;17.62;61.74;97271.00;5069195;28;20048;-82
2024/04/06 11:49:05;;;;;;;6.43;2.78;;;;;;;17.39;62.97;97256.63;5073386;28;20044;-83
2024/04/06 11:51:30;;;;;;;11.68;2.88;;;;;;;17.67;61.91;97286.41;5073347;28;20068;-83
2024/04/06 11:53:56;;;;;;;8.57;2.17;;;;;;;16.88;67.19;97298.38;5056172;28;20052;-83
2024/04/06 11:56:22;;;;;;;9.60;2.55;;;;;;;16.58;70.95;97299.75;5072148;28;20032;-83
2024/04/06 11:58:50;;;;;;;6.35;1.88;;;;;;;17.30;67.21;97285.59;5039324;28;20453;-82
2024/04/06 12:01:17;;;;;;;5.10;2.17;;;;;;;17.24;68.50;97327.53;5039270;28;20368;-82
2024/04/06 12:03:42;;;;;;;45.85;31.50;;;;;;;17.78;62.65;97315.75;5054556;28;20056;-82
2024/04/06 12:06:11;;;;;;;10.00;2.53;;;;;;;16.99;66.21;97326.94;5055266;28;20451;-83
2024/04/06 12:08:37;;;;;;;6.57;2.58;;;;;;;17.38;67.38;97325.59;5056061;28;20035;-82
2024/04/06 12:11:03;;;;;;;6.97;2.72;;;;;;;17.85;63.87;97356.13;5072371;28;20465;-82
2024/04/06 12:13:29;;;;;;;11.23;4.00;;;;;;;18.11;60.40;97323.72;5071669;28;20029;-81
2024/04/06 12:15:54;;;;;;;7.25;3.00;;;;;;;18.24;59.67;97349.25;5054535;28;20455;-82
2024/04/06 12:18:20;;;;;;;9.15;3.10;;;;;;;18.13;60.27;97353.31;5038777;28;20032;-81
2024/04/06 12:20:46;;;;;;;8.80;2.72;;;;;;;18.05;57.99;97335.84;5055915;28;20119;-82
2024/04/06 12:23:11;;;;;;;8.20;2.70;;;;;;;17.09;58.75;97356.63;5072451;28;20043;-83
2024/04/06 12:25:37;;;;;;;8.43;2.50;;;;;;;16.12;65.23;97373.72;5055292;28;20460;-82